Time;durP1;ratioP1;P1;durP2;ratioP2;P2;SDS_P1;SDS_P2;PMS_P1;PMS_P2;Temp;Humidity;BMP_temperature;BMP_pressure;BME280_temperature;BME280_humidity;BME280_pressure;Samples;Min_cycle;Max_cycle;Signal;HPM_P1;HPM_P2
2022/05/21 00:02:11;;;;;;;3.88;0.43;;;22.80;99.90;;;;;;5034273;28;20444;-73
2022/05/21 00:04:41;;;;;;;5.00;0.68;;;22.70;99.90;;;;;;5038802;28;20028;-73
2022/05/21 00:07:10;;;;;;;2.15;0.57;;;22.90;99.90;;;;;;5047684;28;20025;-73
2022/05/21 00:09:38;;;;;;;2.08;0.38;;;23.20;99.90;;;;;;5037099;28;20017;-72
2022/05/21 00:12:06;;;;;;;2.63;0.57;;;22.80;99.90;;;;;;5038803;28;20045;-73
2022/05/21 00:14:37;;;;;;;2.13;0.50;;;23.10;99.90;;;;;;5029063;28;20044;-73
2022/05/21 00:17:05;;;;;;;2.53;0.55;;;23.50;99.90;;;;;;5033198;28;20436;-71
2022/05/21 00:19:32;;;;;;;1.63;0.68;;;23.70;99.90;;;;;;5031667;28;20025;-72
2022/05/21 00:22:00;;;;;;;1.75;0.70;;;24.00;99.90;;;;;;5035793;28;20029;-72
2022/05/21 00:24:28;;;;;;;4.13;0.63;;;24.20;99.90;;;;;;5030420;28;20029;-73
2022/05/21 00:26:55;;;;;;;1.30;0.43;;;24.60;99.90;;;;;;5028183;28;20103;-73
2022/05/21 00:29:26;;;;;;;1.95;0.38;;;24.90;99.90;;;;;;5032892;28;20497;-74
2022/05/21 00:31:54;;;;;;;1.10;0.57;;;25.40;99.70;;;;;;5036286;28;20057;-74
2022/05/21 00:34:21;;;;;;;4.38;1.33;;;25.60;99.00;;;;;;5032546;28;20043;-72
2022/05/21 00:36:49;;;;;;;4.07;0.50;;;25.60;98.70;;;;;;5040388;28;20025;-73
2022/05/21 00:39:17;;;;;;;1.02;0.40;;;24.60;99.30;;;;;;5033173;28;20037;-72
2022/05/21 00:41:45;;;;;;;7.28;0.63;;;24.20;99.20;;;;;;5034518;28;20021;-73
2022/05/21 00:44:12;;;;;;;5.47;1.08;;;24.20;99.90;;;;;;5035705;28;20033;-71
2022/05/21 00:46:43;;;;;;;1.15;0.30;;;24.30;99.10;;;;;;5031316;28;20033;-71
2022/05/21 00:49:10;;;;;;;1.98;0.50;;;24.30;99.60;;;;;;5027705;28;20487;-73
2022/05/21 00:51:53;;;;;;;2.13;0.38;;;24.90;98.80;;;;;;5027882;28;20034;-74
2022/05/21 00:54:28;;;;;;;1.25;0.30;;;24.70;98.90;;;;;;5032544;28;20080;-73
2022/05/21 00:57:04;;;;;;;3.08;0.55;;;24.30;99.30;;;;;;5043100;28;20031;-72
2022/05/21 00:59:51;;;;;;;5.03;0.50;;;23.50;99.90;;;;;;5039358;28;20107;-72
2022/05/21 01:02:38;;;;;;;2.08;0.50;;;22.60;99.90;;;;;;5034198;28;20108;-72
2022/05/21 01:05:11;;;;;;;8.57;0.85;;;21.60;99.90;;;;;;5033402;28;20406;-72
2022/05/21 01:07:40;;;;;;;2.58;0.40;;;20.90;99.90;;;;;;5034716;28;20083;-72
2022/05/21 01:10:09;;;;;;;7.90;0.70;;;20.60;99.90;;;;;;5030529;28;20040;-72
2022/05/21 01:12:45;;;;;;;1.45;0.43;;;20.20;99.90;;;;;;5037337;28;20041;-72
2022/05/21 01:15:17;;;;;;;2.50;0.82;;;19.70;99.90;;;;;;5035690;28;20013;-73
2022/05/21 01:17:45;;;;;;;3.47;0.30;;;19.30;99.90;;;;;;5034820;28;20110;-72
2022/05/21 01:20:16;;;;;;;2.72;0.35;;;19.20;99.90;;;;;;5032656;28;20505;-73
2022/05/21 01:22:46;;;;;;;5.32;1.02;;;19.20;99.90;;;;;;5045173;28;20124;-72
2022/05/21 01:25:23;;;;;;;5.80;1.60;;;19.30;99.90;;;;;;5031316;28;20021;-72
2022/05/21 01:27:53;;;;;;;2.75;0.50;;;19.40;99.90;;;;;;5033201;28;20037;-72
2022/05/21 01:30:32;;;;;;;2.30;0.40;;;19.40;99.90;;;;;;5031669;28;20850;-72
2022/05/21 01:33:04;;;;;;;2.55;0.40;;;19.40;99.90;;;;;;5030683;28;20069;-71
2022/05/21 01:35:32;;;;;;;2.25;0.50;;;19.10;99.90;;;;;;5033429;28;20052;-71
2022/05/21 01:38:00;;;;;;;1.33;0.38;;;19.00;99.90;;;;;;5041930;28;20167;-72
2022/05/21 01:40:29;;;;;;;2.88;0.40;;;18.80;99.90;;;;;;5038142;28;20104;-72
2022/05/21 01:45:42;;;;;;;2.33;0.40;;;18.70;99.90;;;;;;5048655;28;20059;-73
2022/05/21 01:48:10;;;;;;;1.92;1.00;;;18.50;99.90;;;;;;5042369;28;20048;-73
2022/05/21 01:50:39;;;;;;;20.15;11.18;;;18.30;99.90;;;;;;5035261;28;20465;-72
2022/05/21 01:53:06;;;;;;;8.57;4.70;;;18.30;99.90;;;;;;5030745;28;20403;-72
2022/05/21 01:55:34;;;;;;;11.55;5.07;;;18.30;99.90;;;;;;5045041;28;20043;-72
2022/05/21 01:58:01;;;;;;;13.90;9.10;;;18.20;99.90;;;;;;5042318;28;20041;-72
2022/05/21 02:00:29;;;;;;;13.07;8.98;;;18.20;99.90;;;;;;5032759;28;20030;-72
2022/05/21 02:02:56;;;;;;;4.00;2.55;;;18.20;99.90;;;;;;5030549;28;20075;-72
2022/05/21 02:05:23;;;;;;;6.95;1.45;;;18.20;99.90;;;;;;5039973;28;20489;-73
2022/05/21 02:07:51;;;;;;;2.03;0.77;;;18.20;99.90;;;;;;5034308;28;20032;-73
2022/05/21 02:10:18;;;;;;;6.53;1.00;;;18.30;99.90;;;;;;5052607;28;20029;-73
2022/05/21 02:12:46;;;;;;;8.50;2.45;;;18.40;99.90;;;;;;5051619;28;20037;-74
2022/05/21 02:15:13;;;;;;;4.22;1.55;;;18.40;99.90;;;;;;5052915;28;20025;-74
2022/05/21 02:17:41;;;;;;;8.77;0.90;;;18.50;99.90;;;;;;5052031;28;20033;-74
2022/05/21 02:20:09;;;;;;;5.18;1.17;;;18.50;99.90;;;;;;5043257;28;20043;-74
2022/05/21 02:22:39;;;;;;;5.82;3.30;;;18.50;99.90;;;;;;5053484;28;20063;-74
2022/05/21 02:25:08;;;;;;;7.97;7.15;;;18.50;99.90;;;;;;5051937;28;20071;-73
2022/05/21 02:27:36;;;;;;;3.83;2.08;;;18.50;99.90;;;;;;5051438;28;20116;-74
2022/05/21 02:30:04;;;;;;;1.77;1.17;;;18.50;99.90;;;;;;5052621;28;20159;-74
2022/05/21 02:32:31;;;;;;;4.70;1.67;;;18.50;99.90;;;;;;5054048;28;20029;-74
2022/05/21 02:34:59;;;;;;;3.67;0.85;;;18.50;99.90;;;;;;5052306;28;20032;-74
2022/05/21 02:40:13;;;;;;;2.78;0.60;;;18.50;99.90;;;;;;5051282;28;20071;-74
2022/05/21 02:42:43;;;;;;;2.75;0.55;;;18.60;99.90;;;;;;5053137;28;20125;-73
2022/05/21 02:45:14;;;;;;;3.30;0.80;;;18.60;99.90;;;;;;5041289;28;20021;-75
2022/05/21 02:47:42;;;;;;;2.60;0.85;;;18.70;99.90;;;;;;5038711;28;20037;-73
2022/05/21 02:50:10;;;;;;;5.65;0.57;;;18.50;99.90;;;;;;5052126;28;20433;-75
2022/05/21 02:52:37;;;;;;;4.40;0.88;;;18.50;99.90;;;;;;5053760;28;20112;-76
2022/05/21 02:55:06;;;;;;;4.93;0.47;;;18.30;99.90;;;;;;5052055;28;20483;-75
2022/05/21 02:57:34;;;;;;;3.45;1.00;;;18.00;99.90;;;;;;5051564;28;20025;-75
2022/05/21 03:00:04;;;;;;;3.05;0.80;;;17.90;99.90;;;;;;5044367;28;20021;-76
2022/05/21 03:02:32;;;;;;;2.22;0.50;;;17.80;99.90;;;;;;5033623;28;20391;-76
2022/05/21 03:05:00;;;;;;;6.60;1.13;;;17.80;99.90;;;;;;5037836;28;20819;-76
2022/05/21 03:07:27;;;;;;;4.80;0.63;;;17.80;99.90;;;;;;5034717;28;20439;-75
2022/05/21 03:12:40;;;;;;;2.03;0.83;;;17.80;99.90;;;;;;5053488;28;20083;-76
2022/05/21 03:15:08;;;;;;;2.72;0.35;;;17.90;99.90;;;;;;5046333;28;20756;-75
2022/05/21 03:17:35;;;;;;;3.17;1.00;;;17.90;99.90;;;;;;5049705;28;20154;-76
2022/05/21 03:20:03;;;;;;;4.22;1.20;;;18.00;99.90;;;;;;5051116;28;20061;-74
2022/05/21 03:22:31;;;;;;;42.33;23.05;;;18.10;99.90;;;;;;5053170;28;20486;-75
2022/05/21 03:24:58;;;;;;;67.53;37.47;;;18.10;99.90;;;;;;5051319;28;20036;-75
2022/05/21 03:27:26;;;;;;;77.28;38.70;;;18.10;99.90;;;;;;5047867;28;20496;-74
2022/05/21 03:29:53;;;;;;;89.47;48.47;;;18.20;99.90;;;;;;5033466;28;20032;-73
2022/05/21 03:32:20;;;;;;;109.15;54.97;;;18.30;99.90;;;;;;5046645;28;20039;-75
2022/05/21 03:34:48;;;;;;;80.38;42.38;;;18.30;99.90;;;;;;5050886;28;20059;-73
2022/05/21 03:37:15;;;;;;;16.13;9.32;;;18.30;99.90;;;;;;5053032;28;20108;-74
2022/05/21 03:39:42;;;;;;;6.63;4.35;;;18.30;99.90;;;;;;5045185;28;20085;-74
2022/05/21 03:42:10;;;;;;;5.45;2.20;;;18.30;99.90;;;;;;5052603;28;20056;-75
2022/05/21 03:44:37;;;;;;;5.13;2.72;;;18.20;99.90;;;;;;5034604;28;20204;-74
2022/05/21 03:47:05;;;;;;;9.70;4.05;;;18.20;99.90;;;;;;5032842;28;20071;-74
2022/05/21 03:49:32;;;;;;;10.13;2.88;;;18.20;99.90;;;;;;5047031;28;20057;-74
2022/05/21 03:52:00;;;;;;;3.60;3.10;;;18.30;99.90;;;;;;5052798;28;20032;-74
2022/05/21 03:54:27;;;;;;;9.77;8.88;;;18.30;99.90;;;;;;5050837;28;20043;-73
2022/05/21 03:56:55;;;;;;;9.68;8.68;;;18.20;99.90;;;;;;5052461;28;20124;-72
2022/05/21 03:59:22;;;;;;;6.10;4.22;;;18.20;99.90;;;;;;5050045;28;20032;-74
2022/05/21 04:01:50;;;;;;;6.32;1.30;;;18.20;99.90;;;;;;5051549;28;20088;-74
2022/05/21 04:04:17;;;;;;;5.00;2.45;;;18.20;99.90;;;;;;5048590;28;20040;-74
2022/05/21 04:06:45;;;;;;;2.20;1.27;;;18.20;99.90;;;;;;5033986;28;20055;-74
2022/05/21 04:09:12;;;;;;;1.27;0.52;;;18.20;99.90;;;;;;5032186;28;20071;-74
2022/05/21 04:11:39;;;;;;;2.05;0.77;;;18.20;99.90;;;;;;5046730;28;20124;-73
2022/05/21 04:14:07;;;;;;;6.32;0.98;;;18.10;99.90;;;;;;5052039;28;20535;-74
2022/05/21 04:16:36;;;;;;;1.45;0.70;;;18.00;99.90;;;;;;5044359;28;20037;-73
2022/05/21 04:19:04;;;;;;;1.83;0.52;;;18.10;99.90;;;;;;5030825;28;20373;-73
2022/05/21 04:21:31;;;;;;;3.42;1.08;;;18.10;99.90;;;;;;5039734;28;20369;-73
2022/05/21 04:23:58;;;;;;;2.75;0.60;;;18.10;99.90;;;;;;5031356;28;20025;-75
2022/05/21 04:26:26;;;;;;;3.90;0.52;;;18.10;99.90;;;;;;5051920;28;20104;-74
2022/05/21 04:28:53;;;;;;;4.15;0.60;;;18.10;99.90;;;;;;5044614;28;20447;-73
2022/05/21 04:31:21;;;;;;;1.38;0.40;;;18.20;99.90;;;;;;5041812;28;20503;-73
2022/05/21 04:33:48;;;;;;;3.08;0.50;;;18.30;99.90;;;;;;5031945;28;20429;-74
2022/05/21 04:36:18;;;;;;;1.38;0.40;;;18.30;99.90;;;;;;5049249;28;20025;-74
2022/05/21 04:38:47;;;;;;;4.15;0.70;;;18.30;99.90;;;;;;5050016;28;20456;-74
2022/05/21 04:41:14;;;;;;;3.15;0.50;;;18.30;99.90;;;;;;5046456;28;20378;-73
2022/05/21 04:43:42;;;;;;;3.53;1.42;;;18.30;99.90;;;;;;5031903;28;20496;-73
2022/05/21 04:46:11;;;;;;;5.82;0.68;;;18.40;99.90;;;;;;5047621;28;20055;-74
2022/05/21 04:48:41;;;;;;;2.15;0.95;;;18.30;99.90;;;;;;5050295;28;20103;-75
2022/05/21 04:51:08;;;;;;;2.45;0.80;;;18.30;99.90;;;;;;5048854;28;20021;-74
2022/05/21 04:53:36;;;;;;;4.47;0.60;;;18.30;99.90;;;;;;5048977;28;20037;-74
2022/05/21 04:56:05;;;;;;;2.83;0.60;;;18.30;99.90;;;;;;5048139;28;20071;-74
2022/05/21 04:58:33;;;;;;;1.13;0.57;;;18.30;99.90;;;;;;5050293;28;20072;-72
2022/05/21 05:01:04;;;;;;;5.50;1.67;;;18.40;99.90;;;;;;5049375;28;20033;-73
2022/05/21 05:03:32;;;;;;;2.28;0.50;;;18.30;99.90;;;;;;5034413;28;20052;-72
2022/05/21 05:06:00;;;;;;;3.10;0.52;;;18.30;99.90;;;;;;5046133;28;20379;-73
2022/05/21 05:08:28;;;;;;;1.15;0.30;;;18.30;99.90;;;;;;5051260;28;20021;-74
2022/05/21 05:10:55;;;;;;;3.20;0.50;;;18.20;99.90;;;;;;5049356;28;20050;-73
2022/05/21 05:13:23;;;;;;;3.03;0.32;;;18.20;99.90;;;;;;5036116;28;20045;-74
2022/05/21 05:15:50;;;;;;;4.50;0.57;;;18.10;99.90;;;;;;5045249;28;20087;-73
2022/05/21 05:18:23;;;;;;;1.95;1.02;;;18.10;99.90;;;;;;5051443;28;20447;-73
2022/05/21 05:20:51;;;;;;;5.00;0.50;;;18.00;99.90;;;;;;5040975;28;20042;-73
2022/05/21 05:23:18;;;;;;;5.72;1.55;;;18.00;99.90;;;;;;5030643;28;20125;-74
2022/05/21 05:25:46;;;;;;;2.53;0.60;;;17.90;99.90;;;;;;5040313;28;20120;-75
2022/05/21 05:28:19;;;;;;;5.15;1.15;;;17.80;99.90;;;;;;5041638;28;20464;-74
2022/05/21 05:30:49;;;;;;;5.75;1.00;;;17.60;99.90;;;;;;5032860;28;20494;-75
2022/05/21 05:33:18;;;;;;;7.82;1.30;;;17.40;99.90;;;;;;5048762;28;20472;-75
2022/05/21 05:35:48;;;;;;;3.00;0.70;;;17.30;99.90;;;;;;5041227;28;20032;-75
2022/05/21 05:38:17;;;;;;;8.25;3.63;;;17.10;99.90;;;;;;5044883;28;20086;-75
2022/05/21 05:40:46;;;;;;;3.92;1.70;;;17.00;99.90;;;;;;5033760;28;20108;-75
2022/05/21 05:43:19;;;;;;;3.97;1.60;;;16.90;99.90;;;;;;5042529;28;20379;-74
2022/05/21 05:45:48;;;;;;;4.95;1.40;;;16.70;99.90;;;;;;5041012;28;20021;-74
2022/05/21 05:48:16;;;;;;;8.02;1.23;;;16.70;99.90;;;;;;5033605;28;20495;-74
2022/05/21 05:50:43;;;;;;;4.65;1.27;;;16.60;99.90;;;;;;5057360;28;20447;-72
2022/05/21 05:53:11;;;;;;;6.30;1.60;;;16.40;99.90;;;;;;5050057;28;20139;-74
2022/05/21 05:55:41;;;;;;;2.80;0.77;;;16.30;99.90;;;;;;5047074;28;20021;-73
2022/05/21 06:00:54;;;;;;;;;;;16.10;99.90;;;;;;5034389;28;20075;-75
2022/05/21 06:03:22;;;;;;;3.08;1.52;;;16.00;99.90;;;;;;5040937;28;19916;-74
2022/05/21 06:05:50;;;;;;;3.97;1.00;;;15.90;99.90;;;;;;5032767;28;20059;-74
2022/05/21 06:08:18;;;;;;;2.22;0.70;;;15.90;99.90;;;;;;5045649;28;20029;-75
2022/05/21 06:10:48;;;;;;;2.55;0.80;;;15.90;99.90;;;;;;5040596;28;20468;-75
2022/05/21 06:13:15;;;;;;;6.13;1.20;;;15.90;99.90;;;;;;5038275;28;20480;-74
2022/05/21 06:15:43;;;;;;;4.78;1.70;;;15.90;99.90;;;;;;5043003;28;20476;-74
2022/05/21 06:18:14;;;;;;;3.38;1.40;;;15.80;99.90;;;;;;5041472;28;20072;-74
2022/05/21 06:20:43;;;;;;;2.83;0.80;;;15.80;99.90;;;;;;5045246;28;20029;-74
2022/05/21 06:23:12;;;;;;;5.90;0.82;;;15.80;99.90;;;;;;5052211;28;20432;-74
2022/05/21 06:25:40;;;;;;;3.20;0.85;;;15.80;99.90;;;;;;5035732;28;20657;-75
2022/05/21 06:28:08;;;;;;;2.88;0.90;;;15.70;99.90;;;;;;5040954;28;20400;-75
2022/05/21 06:30:38;;;;;;;1.27;0.73;;;15.80;99.90;;;;;;5034122;28;20469;-75
2022/05/21 06:33:22;;;;;;;2.72;1.13;;;15.80;99.90;;;;;;5037497;28;22883;-74
2022/05/21 06:36:01;;;;;;;2.90;1.13;;;15.80;99.90;;;;;;5048006;28;20029;-74
2022/05/21 06:38:28;;;;;;;6.28;1.77;;;15.80;99.90;;;;;;5037686;28;20029;-74
2022/05/21 06:40:56;;;;;;;3.33;1.45;;;15.80;99.90;;;;;;5046023;28;20036;-75
2022/05/21 06:43:23;;;;;;;1.30;0.73;;;15.80;99.90;;;;;;5049481;28;20051;-74
2022/05/21 06:45:50;;;;;;;1.05;0.88;;;15.80;99.90;;;;;;5040538;28;20032;-73
2022/05/21 06:48:18;;;;;;;3.80;0.90;;;15.80;99.90;;;;;;5035040;28;20060;-73
2022/05/21 06:50:46;;;;;;;2.10;1.13;;;15.70;99.90;;;;;;5050110;28;20029;-74
2022/05/21 06:53:14;;;;;;;3.35;1.15;;;15.70;99.90;;;;;;5045574;28;20415;-73
2022/05/21 06:55:41;;;;;;;2.53;0.93;;;15.70;99.90;;;;;;5047738;28;20055;-73
2022/05/21 06:58:09;;;;;;;4.95;1.13;;;15.70;99.90;;;;;;5051776;28;20025;-75
2022/05/21 07:00:46;;;;;;;3.50;1.45;;;15.70;99.90;;;;;;5040790;28;20032;-75
2022/05/21 07:03:16;;;;;;;5.43;1.10;;;15.60;99.90;;;;;;5040930;28;20466;-75
2022/05/21 07:08:29;;;;;;;2.50;1.67;;;15.50;99.90;;;;;;5053061;28;20579;-75
2022/05/21 07:10:57;;;;;;;1.73;1.08;;;15.40;99.90;;;;;;5036199;28;20033;-75
2022/05/21 07:13:25;;;;;;;3.67;2.72;;;15.40;99.90;;;;;;5045124;28;20037;-75
2022/05/21 07:15:54;;;;;;;3.15;1.80;;;15.30;99.90;;;;;;5052145;28;20083;-75
2022/05/21 07:18:22;;;;;;;5.28;2.55;;;15.40;99.90;;;;;;5036974;28;20454;-75
2022/05/21 07:20:51;;;;;;;5.32;2.70;;;15.30;99.90;;;;;;5050667;28;20029;-72
2022/05/21 07:23:19;;;;;;;5.47;3.05;;;15.30;99.90;;;;;;5051201;28;20025;-75
2022/05/21 07:25:49;;;;;;;5.40;3.42;;;15.30;99.90;;;;;;5037060;28;20112;-73
2022/05/21 07:28:17;;;;;;;4.10;3.35;;;15.30;99.90;;;;;;5044219;28;20121;-74
2022/05/21 07:30:46;;;;;;;5.07;4.57;;;15.30;99.90;;;;;;5045862;28;20104;-75
2022/05/21 07:33:17;;;;;;;6.38;3.40;;;15.30;99.90;;;;;;5037448;28;20037;-74
2022/05/21 07:35:45;;;;;;;6.20;3.47;;;15.30;99.90;;;;;;5043996;28;20033;-74
2022/05/21 07:38:14;;;;;;;7.80;3.30;;;15.20;99.90;;;;;;5053261;28;20057;-74
2022/05/21 07:40:43;;;;;;;4.05;2.15;;;15.30;99.90;;;;;;5046891;28;20056;-74
2022/05/21 07:43:19;;;;;;;5.97;2.60;;;15.20;99.90;;;;;;5033315;28;20057;-74
2022/05/21 07:45:47;;;;;;;4.15;2.25;;;15.20;99.90;;;;;;5046072;28;20036;-73
2022/05/21 07:48:18;;;;;;;6.55;2.40;;;15.10;99.90;;;;;;5052170;28;20095;-73
2022/05/21 07:50:51;;;;;;;6.30;2.40;;;15.10;99.90;;;;;;5046318;28;20116;-73
2022/05/21 07:53:22;;;;;;;6.10;1.27;;;15.00;99.90;;;;;;5051716;28;20033;-74
2022/05/21 07:55:51;;;;;;;3.92;1.58;;;15.00;99.90;;;;;;5051388;28;20036;-74
2022/05/21 07:58:24;;;;;;;3.75;1.35;;;14.90;99.90;;;;;;5053009;28;20027;-73
2022/05/21 08:00:52;;;;;;;4.15;1.40;;;14.90;99.90;;;;;;5054286;28;20078;-73
2022/05/21 08:03:20;;;;;;;2.67;1.35;;;14.80;99.90;;;;;;5039283;28;20630;-73
2022/05/21 08:05:48;;;;;;;2.80;0.68;;;14.80;99.90;;;;;;5040473;28;20108;-76
2022/05/21 08:08:16;;;;;;;2.15;0.80;;;14.80;99.90;;;;;;5051647;28;20507;-73
2022/05/21 08:10:46;;;;;;;1.83;0.60;;;14.80;99.90;;;;;;5037028;28;20473;-73
2022/05/21 08:13:15;;;;;;;4.95;0.80;;;14.80;99.90;;;;;;5034073;28;20041;-76
2022/05/21 08:15:44;;;;;;;2.13;0.82;;;14.80;99.90;;;;;;5048823;28;20025;-74
2022/05/21 08:18:11;;;;;;;3.55;1.08;;;14.80;99.90;;;;;;5051420;28;20032;-73
2022/05/21 08:20:40;;;;;;;2.53;1.13;;;14.80;99.90;;;;;;5049201;28;20025;-72
2022/05/21 08:28:43;;;;;;;8.57;2.93;;;14.80;99.90;;;;;;5038707;28;20033;-73
2022/05/21 08:31:11;;;;;;;4.30;2.30;;;14.70;99.90;;;;;;5049855;28;20059;-73
2022/05/21 08:33:38;;;;;;;7.70;3.10;;;14.70;99.90;;;;;;5050411;28;20025;-73
2022/05/21 08:36:06;;;;;;;8.43;3.53;;;14.70;99.90;;;;;;5036956;28;20210;-74
2022/05/21 08:38:36;;;;;;;12.45;5.22;;;14.70;99.90;;;;;;5041351;28;20029;-74
2022/05/21 08:41:14;;;;;;;6.50;2.70;;;14.60;99.90;;;;;;5049181;28;20037;-74
2022/05/21 08:43:44;;;;;;;6.53;2.88;;;14.60;99.90;;;;;;5050737;28;20629;-74
2022/05/21 08:46:37;;;;;;;4.70;1.80;;;14.60;99.90;;;;;;5049669;28;20108;-73
2022/05/21 08:49:20;;;;;;;2.10;1.17;;;14.50;99.90;;;;;;5049381;28;20045;-73
2022/05/21 08:51:56;;;;;;;3.28;0.90;;;14.50;99.90;;;;;;5051830;28;20033;-73
2022/05/21 08:54:27;;;;;;;2.80;1.75;;;14.40;99.90;;;;;;5045344;28;20104;-72
2022/05/21 08:56:56;;;;;;;4.35;1.65;;;14.40;99.90;;;;;;5038835;28;20542;-73
2022/05/21 08:59:32;;;;;;;3.00;1.52;;;14.40;99.90;;;;;;5034321;28;20476;-72
2022/05/21 09:02:00;;;;;;;3.40;1.00;;;14.40;99.90;;;;;;5048772;28;20025;-75
2022/05/21 09:04:30;;;;;;;4.32;1.35;;;14.40;99.90;;;;;;5035482;28;20053;-73
2022/05/21 09:07:11;;;;;;;2.75;1.17;;;14.40;99.90;;;;;;5051324;28;20036;-73
2022/05/21 09:09:58;;;;;;;3.72;1.20;;;14.30;99.90;;;;;;5048650;28;20463;-73
2022/05/21 09:12:52;;;;;;;5.25;2.20;;;14.30;99.90;;;;;;5041491;28;20049;-74
2022/05/21 09:18:11;;;;;;;1.33;0.90;;;14.30;99.90;;;;;;5051739;28;20596;-72
2022/05/21 09:20:49;;;;;;;1.25;0.70;;;14.20;99.90;;;;;;5047945;28;20083;-75
2022/05/21 09:23:16;;;;;;;3.25;1.13;;;14.30;99.90;;;;;;5051702;28;20033;-75
2022/05/21 09:25:44;;;;;;;6.30;1.00;;;14.30;99.90;;;;;;5048222;28;20051;-74
2022/05/21 09:28:20;;;;;;;2.20;0.75;;;14.30;99.90;;;;;;5038521;28;20026;-75
2022/05/21 09:30:57;;;;;;;3.40;1.40;;;14.30;99.90;;;;;;5045851;28;20068;-75
2022/05/21 09:33:35;;;;;;;2.28;0.60;;;14.30;99.90;;;;;;5049647;28;20095;-74
2022/05/21 09:36:03;;;;;;;4.90;0.60;;;14.40;99.90;;;;;;5044146;28;20437;-75
2022/05/21 09:38:33;;;;;;;2.55;0.45;;;14.40;99.90;;;;;;5051168;28;20467;-75
2022/05/21 09:41:12;;;;;;;2.28;0.80;;;14.50;99.90;;;;;;5047905;28;20061;-74
2022/05/21 09:46:35;;;;;;;0.30;0.30;;;14.60;99.90;;;;;;5050725;28;20036;-73
2022/05/21 09:49:28;;;;;;;1.33;0.38;;;14.60;99.90;;;;;;5049139;28;20129;-73
2022/05/21 09:52:08;;;;;;;1.25;0.50;;;14.60;99.90;;;;;;5031240;28;20037;-73
2022/05/21 09:54:42;;;;;;;1.65;0.40;;;14.60;99.90;;;;;;5034974;28;20052;-73
2022/05/21 09:57:37;;;;;;;3.53;1.00;;;14.60;99.90;;;;;;5049808;28;20113;-74
2022/05/21 10:00:22;;;;;;;2.15;0.75;;;14.60;99.90;;;;;;5047124;28;20037;-74
2022/05/21 10:02:58;;;;;;;3.25;0.60;;;14.70;99.90;;;;;;5044149;28;20029;-75
2022/05/21 10:05:44;;;;;;;1.30;0.60;;;14.70;99.90;;;;;;5049393;28;20045;-74
2022/05/21 10:11:27;;;;;;;2.90;0.73;;;14.60;99.90;;;;;;5044805;28;20033;-75
2022/05/21 10:14:08;;;;;;;1.35;1.05;;;14.60;99.90;;;;;;5030788;28;20115;-75
2022/05/21 10:16:52;;;;;;;2.65;0.70;;;14.60;99.90;;;;;;5040970;28;20053;-75
2022/05/21 10:20:07;;;;;;;1.90;0.60;;;14.60;99.90;;;;;;5039379;28;20040;-74
2022/05/21 10:22:49;;;;;;;2.45;0.77;;;14.60;99.90;;;;;;5029537;28;20613;-75
2022/05/21 10:25:21;;;;;;;1.42;0.40;;;14.50;99.90;;;;;;5040947;28;20447;-74
2022/05/21 10:28:09;;;;;;;1.13;0.50;;;14.50;99.90;;;;;;5041791;28;20017;-75
2022/05/21 10:30:53;;;;;;;1.13;0.45;;;14.50;99.90;;;;;;5046774;28;20065;-75
2022/05/21 10:33:33;;;;;;;3.60;0.50;;;14.50;99.90;;;;;;5052746;28;20037;-74
2022/05/21 10:36:24;;;;;;;0.73;0.60;;;14.50;99.90;;;;;;5051972;28;20033;-75
2022/05/21 10:39:10;;;;;;;2.42;0.70;;;14.40;99.90;;;;;;5053829;28;20021;-75
2022/05/21 10:42:00;;;;;;;1.75;0.35;;;14.50;99.90;;;;;;5034853;28;20480;-74
2022/05/21 10:45:04;;;;;;;1.20;0.55;;;14.50;99.90;;;;;;5037330;28;20090;-75
2022/05/21 10:47:50;;;;;;;1.08;0.75;;;14.40;99.90;;;;;;5041356;28;20087;-74
2022/05/21 10:50:20;;;;;;;1.43;0.80;;;14.50;99.90;;;;;;5051979;28;20036;-74
2022/05/21 10:52:59;;;;;;;2.25;0.55;;;14.50;99.90;;;;;;5053212;28;20037;-74
2022/05/21 10:55:29;;;;;;;1.73;0.40;;;14.50;99.90;;;;;;5050305;28;20040;-75
2022/05/21 10:57:59;;;;;;;1.40;0.50;;;14.50;99.90;;;;;;5054048;28;20434;-72
2022/05/21 11:01:03;;;;;;;1.08;0.52;;;14.50;99.90;;;;;;5046360;28;20499;-72
2022/05/21 11:03:55;;;;;;;2.92;0.73;;;14.50;99.90;;;;;;5043466;28;20067;-74
2022/05/21 11:07:02;;;;;;;2.35;0.70;;;14.50;99.90;;;;;;5053544;28;20053;-74
2022/05/21 11:09:38;;;;;;;3.67;0.52;;;14.40;99.90;;;;;;5044596;28;20021;-74
2022/05/21 11:12:33;;;;;;;3.65;0.70;;;14.40;99.90;;;;;;5053646;28;20395;-74
2022/05/21 11:15:09;;;;;;;1.77;0.90;;;14.40;99.90;;;;;;5051161;28;20067;-73
2022/05/21 11:18:08;;;;;;;1.05;0.43;;;14.30;99.90;;;;;;5040165;28;20087;-73
2022/05/21 11:20:45;;;;;;;2.38;0.55;;;14.40;99.90;;;;;;5043763;28;20046;-73
2022/05/21 11:23:35;;;;;;;0.77;0.60;;;14.40;99.90;;;;;;5053551;28;20083;-75
2022/05/21 11:26:10;;;;;;;1.25;0.60;;;14.40;99.90;;;;;;5050899;28;20029;-74
2022/05/21 11:28:54;;;;;;;4.53;0.50;;;14.40;99.90;;;;;;5053325;28;20024;-72
2022/05/21 11:37:21;;;;;;;2.05;0.60;;;14.40;99.90;;;;;;5049122;28;20086;-73
2022/05/21 11:39:59;;;;;;;1.27;0.98;;;14.40;99.90;;;;;;5047900;28;20024;-73
2022/05/21 11:42:33;;;;;;;1.67;1.00;;;14.40;99.90;;;;;;5044613;28;20029;-73
2022/05/21 11:45:09;;;;;;;2.20;0.90;;;14.40;99.90;;;;;;5038445;28;20273;-73
2022/05/21 11:47:53;;;;;;;3.40;1.30;;;14.40;99.90;;;;;;5032842;28;20033;-72
2022/05/21 11:50:30;;;;;;;0.90;0.52;;;14.40;99.90;;;;;;5043553;28;20095;-72
2022/05/21 11:53:01;;;;;;;3.05;2.17;;;14.40;99.90;;;;;;5048167;28;20037;-73
2022/05/21 11:55:31;;;;;;;4.55;2.10;;;14.40;99.90;;;;;;5050573;28;20593;-72
2022/05/21 11:57:58;;;;;;;1.80;1.30;;;14.40;99.90;;;;;;5052694;28;20028;-73
2022/05/21 12:00:25;;;;;;;2.20;1.40;;;14.40;99.90;;;;;;5046824;28;20114;-73
2022/05/21 12:02:58;;;;;;;1.85;1.58;;;14.30;99.90;;;;;;5034146;28;20106;-73
2022/05/21 12:05:34;;;;;;;6.03;2.00;;;14.40;99.90;;;;;;5050664;28;20025;-73
2022/05/21 12:08:38;;;;;;;3.75;2.00;;;14.30;99.90;;;;;;5048378;28;20506;-73
2022/05/21 12:11:23;;;;;;;6.13;2.33;;;14.40;99.90;;;;;;5030188;28;20083;-74
2022/05/21 12:14:27;;;;;;;9.27;1.63;;;14.30;99.90;;;;;;5032397;28;20069;-73
2022/05/21 12:17:01;;;;;;;2.60;1.00;;;14.40;99.90;;;;;;5039458;28;20084;-72
2022/05/21 12:19:53;;;;;;;2.67;1.13;;;14.40;99.90;;;;;;5046959;28;20045;-72
2022/05/21 12:22:42;;;;;;;2.53;1.13;;;14.30;99.90;;;;;;5038974;28;20029;-72
2022/05/21 12:25:30;;;;;;;1.58;1.27;;;14.30;99.90;;;;;;5049925;28;20060;-74
2022/05/21 12:28:03;;;;;;;3.25;1.17;;;14.20;99.90;;;;;;5042726;28;20107;-73
2022/05/21 12:30:31;;;;;;;4.22;1.10;;;14.20;99.90;;;;;;5048302;28;20103;-74
2022/05/21 12:32:59;;;;;;;1.20;1.10;;;14.20;99.90;;;;;;5042936;28;20041;-74
2022/05/21 12:35:45;;;;;;;2.03;1.05;;;14.20;99.90;;;;;;5048661;28;20105;-74
2022/05/21 12:38:35;;;;;;;2.03;0.80;;;14.20;99.90;;;;;;5038142;28;20034;-74
2022/05/21 12:41:41;;;;;;;1.00;0.60;;;14.20;99.90;;;;;;5048097;28;20033;-74
2022/05/21 12:44:08;;;;;;;1.15;0.57;;;14.10;99.90;;;;;;5041328;28;20388;-74
2022/05/21 12:46:36;;;;;;;0.93;0.60;;;14.20;99.90;;;;;;5045942;28;20025;-72
2022/05/21 12:49:10;;;;;;;2.70;1.00;;;14.20;99.90;;;;;;5037492;28;20411;-75
2022/05/21 12:51:42;;;;;;;2.63;0.73;;;14.20;99.90;;;;;;5035954;28;20087;-74
2022/05/21 12:54:24;;;;;;;3.05;0.70;;;14.20;99.90;;;;;;5032312;28;20365;-73
2022/05/21 12:56:54;;;;;;;1.85;0.95;;;14.20;99.90;;;;;;5039271;28;20113;-73
2022/05/21 12:59:30;;;;;;;1.73;0.75;;;14.20;99.90;;;;;;5036953;28;20036;-73
2022/05/21 13:02:11;;;;;;;3.65;1.77;;;14.20;99.90;;;;;;5038001;28;20076;-74
2022/05/21 13:04:45;;;;;;;5.55;2.40;;;14.20;99.90;;;;;;5035917;28;20131;-74
2022/05/21 13:07:30;;;;;;;1.70;1.35;;;14.20;99.90;;;;;;5048088;28;20029;-74
2022/05/21 13:10:04;;;;;;;3.10;1.90;;;14.20;99.90;;;;;;5039797;28;20028;-74
2022/05/21 13:12:48;;;;;;;5.50;2.15;;;14.20;99.90;;;;;;5047715;28;20032;-74
2022/05/21 13:15:50;;;;;;;1.40;1.05;;;14.20;99.90;;;;;;5045197;28;20086;-74
2022/05/21 13:18:38;;;;;;;2.42;1.42;;;14.10;99.90;;;;;;5050313;28;20041;-74
2022/05/21 13:21:44;;;;;;;2.78;1.67;;;14.10;99.90;;;;;;5049048;28;20049;-74
2022/05/21 13:24:45;;;;;;;2.25;0.80;;;14.10;99.90;;;;;;5043695;28;20037;-74
2022/05/21 13:27:15;;;;;;;2.33;0.90;;;14.00;99.90;;;;;;5034328;28;20436;-74
2022/05/21 13:29:44;;;;;;;1.00;0.70;;;14.00;99.90;;;;;;5048169;28;20107;-74
2022/05/21 13:32:23;;;;;;;1.05;0.80;;;14.00;99.90;;;;;;5051263;28;20128;-74
2022/05/21 13:34:53;;;;;;;2.20;0.98;;;14.00;99.90;;;;;;5044180;28;20108;-74
2022/05/21 13:37:32;;;;;;;2.60;0.98;;;14.00;99.90;;;;;;5046531;28;20031;-74
2022/05/21 13:40:18;;;;;;;1.38;0.80;;;14.00;99.90;;;;;;5047066;28;20094;-74
2022/05/21 13:42:47;;;;;;;0.70;0.50;;;14.00;99.90;;;;;;5050107;28;20025;-74
2022/05/21 13:45:35;;;;;;;0.68;0.50;;;14.00;99.90;;;;;;5049667;28;20472;-74
2022/05/21 13:48:10;;;;;;;1.73;0.70;;;14.00;99.90;;;;;;5051062;28;20091;-73
2022/05/21 13:50:38;;;;;;;1.27;0.53;;;14.00;99.90;;;;;;5046788;28;20049;-74